createdAt,value
2022-12-22T00:03:10.772Z,978.86
2022-12-22T00:15:11.017Z,978.90
2022-12-22T00:27:11.480Z,978.85
2022-12-22T00:39:11.936Z,978.84
2022-12-22T00:51:12.372Z,978.67
2022-12-22T01:03:12.925Z,978.42
2022-12-22T01:15:13.298Z,978.12
2022-12-22T01:27:13.749Z,978.08
2022-12-22T01:39:14.168Z,978.13
2022-12-22T01:51:14.619Z,978.10
2022-12-22T02:03:15.126Z,978.18
2022-12-22T02:15:15.549Z,978.04
2022-12-22T02:27:16.005Z,977.97
2022-12-22T02:39:16.430Z,978.01
2022-12-22T02:51:16.897Z,977.91
2022-12-22T03:03:17.533Z,977.85
2022-12-22T03:15:17.795Z,977.75
2022-12-22T03:27:18.276Z,977.52
2022-12-22T03:39:18.664Z,977.42
2022-12-22T03:51:19.134Z,977.29
2022-12-22T04:03:19.679Z,977.43
2022-12-22T04:15:20.065Z,977.28
2022-12-22T04:27:20.495Z,977.06
2022-12-22T04:39:20.974Z,977.14
2022-12-22T04:51:21.371Z,977.19
2022-12-22T05:03:21.914Z,977.14
2022-12-22T05:15:22.320Z,977.13
2022-12-22T05:27:22.719Z,977.04
2022-12-22T05:39:23.232Z,976.89
2022-12-22T05:51:23.702Z,976.85
2022-12-22T06:03:24.145Z,976.84
2022-12-22T06:15:24.579Z,976.89
2022-12-22T06:27:25.031Z,977.03
2022-12-22T06:39:25.487Z,977.00
2022-12-22T06:51:25.933Z,976.96
2022-12-22T07:03:26.480Z,976.92
2022-12-22T07:15:26.821Z,976.90
2022-12-22T07:27:27.315Z,976.99
2022-12-22T07:39:27.736Z,976.89
2022-12-22T07:51:28.170Z,977.06
2022-12-22T08:03:28.772Z,976.97
2022-12-22T08:15:29.120Z,976.96
2022-12-22T08:27:29.527Z,977.00
2022-12-22T08:39:29.959Z,977.06
2022-12-22T08:51:30.404Z,976.94
2022-12-22T09:03:30.965Z,976.96
2022-12-22T09:15:31.329Z,976.95
2022-12-22T09:27:31.804Z,976.98
2022-12-22T09:39:32.249Z,976.80
2022-12-22T09:51:32.716Z,976.61
2022-12-22T10:03:33.216Z,976.45
2022-12-22T10:15:33.563Z,976.33
2022-12-22T10:27:36.198Z,976.20
2022-12-22T10:39:34.587Z,976.16
2022-12-22T10:51:34.966Z,976.03
2022-12-22T11:03:35.519Z,975.85
2022-12-22T11:15:35.878Z,975.64
2022-12-22T11:27:40.771Z,975.52
2022-12-22T11:39:36.766Z,975.55
2022-12-22T11:51:37.216Z,975.47
2022-12-22T12:03:37.844Z,975.48
2022-12-22T12:15:38.219Z,975.53
2022-12-22T12:27:38.551Z,975.84
2022-12-22T12:39:39.015Z,975.86
2022-12-22T12:51:39.506Z,975.84
2022-12-22T13:04:02.550Z,975.95
2022-12-22T13:15:40.515Z,975.98
2022-12-22T13:27:40.851Z,976.35
2022-12-22T13:39:41.278Z,976.06
2022-12-22T13:51:41.778Z,975.29
2022-12-22T14:03:59.608Z,975.85
2022-12-22T14:15:42.651Z,976.02
2022-12-22T14:27:43.105Z,976.16
2022-12-22T14:39:43.554Z,976.23
2022-12-22T14:51:43.996Z,976.12
2022-12-22T15:03:44.596Z,976.07
2022-12-22T15:15:44.882Z,976.06
2022-12-22T15:27:45.394Z,976.13
2022-12-22T15:39:45.844Z,976.65
2022-12-22T15:51:46.285Z,976.78
2022-12-22T16:03:46.904Z,976.85
2022-12-22T16:15:47.281Z,976.70
2022-12-22T16:27:47.621Z,975.77
2022-12-22T16:39:48.078Z,975.15
2022-12-22T16:51:48.531Z,975.58
2022-12-22T17:03:49.058Z,976.08
2022-12-22T17:15:49.463Z,976.26
2022-12-22T17:27:49.888Z,976.09
2022-12-22T17:39:50.398Z,975.59
2022-12-22T17:51:50.907Z,975.06
2022-12-22T18:03:51.328Z,975.07
2022-12-22T18:15:51.754Z,975.46
2022-12-22T18:27:52.131Z,975.54
2022-12-22T18:39:52.692Z,975.90
2022-12-22T18:51:53.082Z,975.60
2022-12-22T19:03:53.481Z,975.67
2022-12-22T19:15:53.992Z,975.87
2022-12-22T19:27:54.427Z,975.94
2022-12-22T19:39:54.856Z,975.86
2022-12-22T19:51:55.306Z,975.81
2022-12-22T20:03:55.773Z,975.88
2022-12-22T20:15:56.199Z,975.87
2022-12-22T20:27:56.670Z,975.95
2022-12-22T20:39:57.146Z,975.82
2022-12-22T20:51:57.611Z,975.65
2022-12-22T21:03:58.126Z,975.71
2022-12-22T21:15:58.477Z,975.83
2022-12-22T21:27:58.887Z,975.91
2022-12-22T21:39:59.380Z,976.07
2022-12-22T21:51:59.867Z,975.98
2022-12-22T22:04:00.353Z,975.75
2022-12-22T22:16:00.763Z,975.69
2022-12-22T22:28:01.149Z,975.64
2022-12-22T22:40:01.662Z,975.54
2022-12-22T22:52:02.072Z,975.52
2022-12-22T23:04:02.651Z,975.22
2022-12-22T23:16:03.108Z,975.10
2022-12-22T23:28:03.461Z,974.92
2022-12-22T23:40:25.608Z,974.84
2022-12-22T23:52:04.363Z,974.72
